sensor_id;sensor_type;location;lat;lon;timestamp;P1;durP1;ratioP1;P2;durP2;ratioP2
21786;SDS011;11055;50.870;4.316;2023-05-10T00:00:33;10.10;;;7.20;;
21786;SDS011;11055;50.870;4.316;2023-05-10T00:02:59;12.52;;;8.20;;
21786;SDS011;11055;50.870;4.316;2023-05-10T00:05:24;14.25;;;7.47;;
21786;SDS011;11055;50.870;4.316;2023-05-10T00:07:50;11.73;;;8.48;;
21786;SDS011;11055;50.870;4.316;2023-05-10T00:10:16;13.90;;;8.10;;
21786;SDS011;11055;50.870;4.316;2023-05-10T00:12:41;13.10;;;8.20;;
21786;SDS011;11055;50.870;4.316;2023-05-10T00:15:07;14.23;;;8.52;;
21786;SDS011;11055;50.870;4.316;2023-05-10T00:17:33;11.23;;;7.97;;
21786;SDS011;11055;50.870;4.316;2023-05-10T00:19:59;13.43;;;8.52;;
21786;SDS011;11055;50.870;4.316;2023-05-10T00:22:25;9.30;;;7.55;;
21786;SDS011;11055;50.870;4.316;2023-05-10T00:24:51;15.68;;;8.93;;
21786;SDS011;11055;50.870;4.316;2023-05-10T00:27:16;10.82;;;8.48;;
21786;SDS011;11055;50.870;4.316;2023-05-10T00:29:42;10.20;;;7.72;;
21786;SDS011;11055;50.870;4.316;2023-05-10T00:32:07;14.05;;;8.35;;
21786;SDS011;11055;50.870;4.316;2023-05-10T00:34:33;13.35;;;8.38;;
21786;SDS011;11055;50.870;4.316;2023-05-10T00:36:59;13.57;;;9.02;;
21786;SDS011;11055;50.870;4.316;2023-05-10T00:39:24;15.20;;;9.13;;
21786;SDS011;11055;50.870;4.316;2023-05-10T00:41:51;13.43;;;8.70;;
21786;SDS011;11055;50.870;4.316;2023-05-10T00:44:17;16.88;;;9.70;;
21786;SDS011;11055;50.870;4.316;2023-05-10T00:46:43;10.27;;;8.35;;
21786;SDS011;11055;50.870;4.316;2023-05-10T00:49:09;13.82;;;8.68;;
21786;SDS011;11055;50.870;4.316;2023-05-10T00:51:36;15.45;;;9.13;;
21786;SDS011;11055;50.870;4.316;2023-05-10T00:54:02;11.50;;;8.48;;
21786;SDS011;11055;50.870;4.316;2023-05-10T00:56:28;12.23;;;8.77;;
21786;SDS011;11055;50.870;4.316;2023-05-10T00:58:55;14.90;;;9.50;;
21786;SDS011;11055;50.870;4.316;2023-05-10T01:01:20;15.38;;;9.20;;
21786;SDS011;11055;50.870;4.316;2023-05-10T01:03:46;12.38;;;8.43;;
21786;SDS011;11055;50.870;4.316;2023-05-10T01:06:12;14.27;;;9.73;;
21786;SDS011;11055;50.870;4.316;2023-05-10T01:08:38;12.63;;;8.35;;
21786;SDS011;11055;50.870;4.316;2023-05-10T01:11:04;14.23;;;9.60;;
21786;SDS011;11055;50.870;4.316;2023-05-10T01:13:31;13.63;;;8.95;;
21786;SDS011;11055;50.870;4.316;2023-05-10T01:15:59;13.05;;;9.18;;
21786;SDS011;11055;50.870;4.316;2023-05-10T01:18:28;14.82;;;9.88;;
21786;SDS011;11055;50.870;4.316;2023-05-10T01:32:05;16.25;;;11.05;;
21786;SDS011;11055;50.870;4.316;2023-05-10T01:34:47;15.10;;;10.02;;
21786;SDS011;11055;50.870;4.316;2023-05-10T01:37:21;16.75;;;10.93;;
21786;SDS011;11055;50.870;4.316;2023-05-10T01:42:51;17.10;;;10.93;;
21786;SDS011;11055;50.870;4.316;2023-05-10T01:48:06;18.00;;;11.40;;
21786;SDS011;11055;50.870;4.316;2023-05-10T01:50:35;14.70;;;11.60;;
21786;SDS011;11055;50.870;4.316;2023-05-10T01:53:04;16.23;;;11.82;;
21786;SDS011;11055;50.870;4.316;2023-05-10T01:55:34;16.02;;;11.27;;
21786;SDS011;11055;50.870;4.316;2023-05-10T01:58:06;19.38;;;11.75;;
21786;SDS011;11055;50.870;4.316;2023-05-10T02:00:34;15.90;;;11.40;;
21786;SDS011;11055;50.870;4.316;2023-05-10T02:03:03;14.63;;;11.10;;
21786;SDS011;11055;50.870;4.316;2023-05-10T02:05:31;18.73;;;12.93;;
21786;SDS011;11055;50.870;4.316;2023-05-10T02:07:58;14.88;;;11.73;;
21786;SDS011;11055;50.870;4.316;2023-05-10T02:10:26;17.92;;;12.15;;
21786;SDS011;11055;50.870;4.316;2023-05-10T02:12:53;16.60;;;11.70;;
21786;SDS011;11055;50.870;4.316;2023-05-10T02:15:22;14.80;;;11.48;;
21786;SDS011;11055;50.870;4.316;2023-05-10T02:17:50;21.83;;;14.00;;
21786;SDS011;11055;50.870;4.316;2023-05-10T02:20:17;22.23;;;12.82;;
21786;SDS011;11055;50.870;4.316;2023-05-10T02:22:45;22.88;;;14.23;;
21786;SDS011;11055;50.870;4.316;2023-05-10T02:25:14;20.17;;;12.98;;
21786;SDS011;11055;50.870;4.316;2023-05-10T02:27:41;18.88;;;12.82;;
21786;SDS011;11055;50.870;4.316;2023-05-10T02:30:08;18.52;;;13.30;;
21786;SDS011;11055;50.870;4.316;2023-05-10T02:32:36;19.58;;;12.93;;
21786;SDS011;11055;50.870;4.316;2023-05-10T02:35:03;18.08;;;13.07;;
21786;SDS011;11055;50.870;4.316;2023-05-10T02:37:29;18.92;;;12.30;;
21786;SDS011;11055;50.870;4.316;2023-05-10T02:39:57;20.85;;;12.95;;
21786;SDS011;11055;50.870;4.316;2023-05-10T02:42:25;21.30;;;13.45;;
21786;SDS011;11055;50.870;4.316;2023-05-10T02:44:53;21.13;;;12.93;;
21786;SDS011;11055;50.870;4.316;2023-05-10T02:47:21;19.65;;;13.40;;
21786;SDS011;11055;50.870;4.316;2023-05-10T02:49:47;19.88;;;12.68;;
21786;SDS011;11055;50.870;4.316;2023-05-10T02:52:15;18.85;;;12.95;;
21786;SDS011;11055;50.870;4.316;2023-05-10T02:54:45;18.10;;;12.10;;
21786;SDS011;11055;50.870;4.316;2023-05-10T02:57:15;19.38;;;12.35;;
21786;SDS011;11055;50.870;4.316;2023-05-10T02:59:44;18.13;;;11.73;;
21786;SDS011;11055;50.870;4.316;2023-05-10T03:02:10;16.25;;;11.45;;
21786;SDS011;11055;50.870;4.316;2023-05-10T03:04:39;18.75;;;13.93;;
21786;SDS011;11055;50.870;4.316;2023-05-10T03:07:05;18.23;;;12.85;;
21786;SDS011;11055;50.870;4.316;2023-05-10T03:09:31;20.30;;;13.13;;
21786;SDS011;11055;50.870;4.316;2023-05-10T03:12:03;18.63;;;12.52;;
21786;SDS011;11055;50.870;4.316;2023-05-10T03:17:23;17.90;;;12.60;;
21786;SDS011;11055;50.870;4.316;2023-05-10T03:20:12;18.02;;;12.88;;
21786;SDS011;11055;50.870;4.316;2023-05-10T03:22:47;16.90;;;13.80;;
21786;SDS011;11055;50.870;4.316;2023-05-10T03:25:17;21.77;;;14.43;;
21786;SDS011;11055;50.870;4.316;2023-05-10T03:27:45;19.08;;;14.52;;
21786;SDS011;11055;50.870;4.316;2023-05-10T03:30:12;22.92;;;14.20;;
21786;SDS011;11055;50.870;4.316;2023-05-10T03:32:38;19.73;;;13.48;;
21786;SDS011;11055;50.870;4.316;2023-05-10T03:35:07;24.60;;;16.67;;
21786;SDS011;11055;50.870;4.316;2023-05-10T03:37:34;23.10;;;16.95;;
21786;SDS011;11055;50.870;4.316;2023-05-10T03:40:00;24.90;;;17.20;;
21786;SDS011;11055;50.870;4.316;2023-05-10T03:42:26;28.23;;;17.77;;
21786;SDS011;11055;50.870;4.316;2023-05-10T03:44:52;26.90;;;17.50;;
21786;SDS011;11055;50.870;4.316;2023-05-10T03:47:17;25.88;;;18.02;;
21786;SDS011;11055;50.870;4.316;2023-05-10T03:49:43;32.90;;;23.38;;
21786;SDS011;11055;50.870;4.316;2023-05-10T03:52:08;34.42;;;23.98;;
21786;SDS011;11055;50.870;4.316;2023-05-10T03:54:34;30.60;;;20.17;;
21786;SDS011;11055;50.870;4.316;2023-05-10T03:57:00;28.65;;;19.42;;
21786;SDS011;11055;50.870;4.316;2023-05-10T03:59:26;32.45;;;20.83;;
21786;SDS011;11055;50.870;4.316;2023-05-10T04:01:52;35.15;;;21.38;;
21786;SDS011;11055;50.870;4.316;2023-05-10T04:04:17;33.58;;;21.25;;
21786;SDS011;11055;50.870;4.316;2023-05-10T04:06:43;30.45;;;20.83;;
21786;SDS011;11055;50.870;4.316;2023-05-10T04:09:10;31.20;;;19.45;;
21786;SDS011;11055;50.870;4.316;2023-05-10T04:11:35;32.15;;;20.17;;
21786;SDS011;11055;50.870;4.316;2023-05-10T04:14:01;32.00;;;20.90;;
21786;SDS011;11055;50.870;4.316;2023-05-10T04:16:27;33.60;;;20.90;;
21786;SDS011;11055;50.870;4.316;2023-05-10T04:18:52;33.50;;;21.50;;
21786;SDS011;11055;50.870;4.316;2023-05-10T04:21:18;34.78;;;23.15;;
21786;SDS011;11055;50.870;4.316;2023-05-10T04:23:45;32.17;;;21.35;;
21786;SDS011;11055;50.870;4.316;2023-05-10T04:26:10;35.25;;;22.10;;
21786;SDS011;11055;50.870;4.316;2023-05-10T04:28:36;33.53;;;21.65;;
21786;SDS011;11055;50.870;4.316;2023-05-10T04:31:03;33.97;;;22.60;;
21786;SDS011;11055;50.870;4.316;2023-05-10T04:33:29;32.53;;;21.25;;
21786;SDS011;11055;50.870;4.316;2023-05-10T04:35:55;30.15;;;21.40;;
21786;SDS011;11055;50.870;4.316;2023-05-10T04:38:21;34.03;;;23.52;;
21786;SDS011;11055;50.870;4.316;2023-05-10T04:40:47;31.83;;;21.70;;
21786;SDS011;11055;50.870;4.316;2023-05-10T04:43:12;36.15;;;22.48;;
21786;SDS011;11055;50.870;4.316;2023-05-10T04:45:38;32.70;;;22.92;;
21786;SDS011;11055;50.870;4.316;2023-05-10T04:48:04;36.58;;;24.65;;
21786;SDS011;11055;50.870;4.316;2023-05-10T04:50:30;32.83;;;22.60;;
21786;SDS011;11055;50.870;4.316;2023-05-10T04:52:56;33.97;;;24.88;;
21786;SDS011;11055;50.870;4.316;2023-05-10T04:55:22;33.88;;;23.70;;
21786;SDS011;11055;50.870;4.316;2023-05-10T04:57:48;35.13;;;23.73;;
21786;SDS011;11055;50.870;4.316;2023-05-10T05:00:13;35.03;;;22.52;;
21786;SDS011;11055;50.870;4.316;2023-05-10T05:02:42;37.45;;;22.65;;
21786;SDS011;11055;50.870;4.316;2023-05-10T05:05:09;34.20;;;25.48;;
21786;SDS011;11055;50.870;4.316;2023-05-10T05:07:34;36.15;;;23.63;;
21786;SDS011;11055;50.870;4.316;2023-05-10T05:10:00;32.05;;;23.17;;
21786;SDS011;11055;50.870;4.316;2023-05-10T05:12:25;33.00;;;23.38;;
21786;SDS011;11055;50.870;4.316;2023-05-10T05:14:51;32.53;;;24.35;;
21786;SDS011;11055;50.870;4.316;2023-05-10T05:17:17;34.95;;;23.08;;
21786;SDS011;11055;50.870;4.316;2023-05-10T05:19:42;37.40;;;23.55;;
21786;SDS011;11055;50.870;4.316;2023-05-10T05:22:08;33.17;;;23.08;;
21786;SDS011;11055;50.870;4.316;2023-05-10T05:24:36;31.50;;;22.80;;
21786;SDS011;11055;50.870;4.316;2023-05-10T05:27:03;36.70;;;22.98;;
21786;SDS011;11055;50.870;4.316;2023-05-10T05:29:29;35.63;;;23.67;;
21786;SDS011;11055;50.870;4.316;2023-05-10T05:31:54;26.67;;;20.48;;
21786;SDS011;11055;50.870;4.316;2023-05-10T05:34:20;27.17;;;18.63;;
21786;SDS011;11055;50.870;4.316;2023-05-10T05:36:46;19.17;;;14.73;;
21786;SDS011;11055;50.870;4.316;2023-05-10T05:39:12;20.40;;;13.75;;
21786;SDS011;11055;50.870;4.316;2023-05-10T05:41:38;19.05;;;12.88;;
21786;SDS011;11055;50.870;4.316;2023-05-10T05:44:03;18.48;;;12.90;;
21786;SDS011;11055;50.870;4.316;2023-05-10T05:46:29;20.52;;;14.77;;
21786;SDS011;11055;50.870;4.316;2023-05-10T05:48:55;19.10;;;14.82;;
21786;SDS011;11055;50.870;4.316;2023-05-10T05:51:21;21.48;;;14.80;;
21786;SDS011;11055;50.870;4.316;2023-05-10T05:53:46;20.45;;;15.45;;
21786;SDS011;11055;50.870;4.316;2023-05-10T05:56:12;27.33;;;16.60;;
21786;SDS011;11055;50.870;4.316;2023-05-10T05:58:38;23.67;;;16.25;;
21786;SDS011;11055;50.870;4.316;2023-05-10T06:01:03;22.73;;;16.63;;
21786;SDS011;11055;50.870;4.316;2023-05-10T06:03:29;23.67;;;16.63;;
21786;SDS011;11055;50.870;4.316;2023-05-10T06:05:54;24.35;;;17.42;;
21786;SDS011;11055;50.870;4.316;2023-05-10T06:08:20;24.35;;;17.00;;
21786;SDS011;11055;50.870;4.316;2023-05-10T06:10:46;27.90;;;18.25;;
21786;SDS011;11055;50.870;4.316;2023-05-10T06:13:11;23.15;;;16.60;;
21786;SDS011;11055;50.870;4.316;2023-05-10T06:15:37;31.38;;;17.92;;
21786;SDS011;11055;50.870;4.316;2023-05-10T06:18:03;28.25;;;18.48;;
21786;SDS011;11055;50.870;4.316;2023-05-10T06:20:29;29.40;;;20.48;;
21786;SDS011;11055;50.870;4.316;2023-05-10T06:22:56;28.85;;;20.02;;
21786;SDS011;11055;50.870;4.316;2023-05-10T06:25:22;28.65;;;19.65;;
21786;SDS011;11055;50.870;4.316;2023-05-10T06:27:48;28.98;;;20.58;;
21786;SDS011;11055;50.870;4.316;2023-05-10T06:30:14;36.20;;;21.10;;
21786;SDS011;11055;50.870;4.316;2023-05-10T06:32:40;28.83;;;20.20;;
21786;SDS011;11055;50.870;4.316;2023-05-10T06:35:06;37.45;;;21.75;;
21786;SDS011;11055;50.870;4.316;2023-05-10T06:37:32;33.17;;;21.08;;
21786;SDS011;11055;50.870;4.316;2023-05-10T06:39:59;31.23;;;21.95;;
21786;SDS011;11055;50.870;4.316;2023-05-10T06:42:25;32.20;;;21.13;;
21786;SDS011;11055;50.870;4.316;2023-05-10T06:44:52;31.52;;;21.73;;
21786;SDS011;11055;50.870;4.316;2023-05-10T06:47:18;39.35;;;21.77;;
21786;SDS011;11055;50.870;4.316;2023-05-10T06:49:43;32.00;;;20.65;;
21786;SDS011;11055;50.870;4.316;2023-05-10T06:52:09;38.88;;;21.33;;
21786;SDS011;11055;50.870;4.316;2023-05-10T06:54:35;25.58;;;17.67;;
21786;SDS011;11055;50.870;4.316;2023-05-10T06:57:00;27.10;;;15.88;;
21786;SDS011;11055;50.870;4.316;2023-05-10T06:59:28;28.55;;;16.02;;
21786;SDS011;11055;50.870;4.316;2023-05-10T07:01:53;23.95;;;15.48;;
21786;SDS011;11055;50.870;4.316;2023-05-10T07:04:19;29.27;;;16.35;;
21786;SDS011;11055;50.870;4.316;2023-05-10T07:06:45;27.92;;;18.55;;
21786;SDS011;11055;50.870;4.316;2023-05-10T07:09:11;27.48;;;17.63;;
21786;SDS011;11055;50.870;4.316;2023-05-10T07:11:38;33.97;;;16.98;;
21786;SDS011;11055;50.870;4.316;2023-05-10T07:14:04;26.73;;;17.15;;
21786;SDS011;11055;50.870;4.316;2023-05-10T07:16:30;30.80;;;17.88;;
21786;SDS011;11055;50.870;4.316;2023-05-10T07:18:55;33.30;;;17.85;;
21786;SDS011;11055;50.870;4.316;2023-05-10T07:21:21;29.75;;;17.17;;
21786;SDS011;11055;50.870;4.316;2023-05-10T07:23:49;30.27;;;16.90;;
21786;SDS011;11055;50.870;4.316;2023-05-10T07:26:15;31.30;;;17.30;;
21786;SDS011;11055;50.870;4.316;2023-05-10T07:28:41;24.77;;;17.42;;
21786;SDS011;11055;50.870;4.316;2023-05-10T07:31:06;29.80;;;18.60;;
21786;SDS011;11055;50.870;4.316;2023-05-10T07:33:32;28.15;;;16.02;;
21786;SDS011;11055;50.870;4.316;2023-05-10T07:35:58;25.98;;;15.65;;
21786;SDS011;11055;50.870;4.316;2023-05-10T07:38:23;28.30;;;15.40;;
21786;SDS011;11055;50.870;4.316;2023-05-10T07:40:49;27.83;;;14.88;;
21786;SDS011;11055;50.870;4.316;2023-05-10T07:43:15;23.35;;;12.73;;
21786;SDS011;11055;50.870;4.316;2023-05-10T07:45:40;23.25;;;13.15;;
21786;SDS011;11055;50.870;4.316;2023-05-10T07:48:06;22.50;;;12.00;;
21786;SDS011;11055;50.870;4.316;2023-05-10T07:50:32;22.35;;;12.73;;
21786;SDS011;11055;50.870;4.316;2023-05-10T07:52:57;19.33;;;11.43;;
21786;SDS011;11055;50.870;4.316;2023-05-10T07:55:23;20.75;;;13.23;;
21786;SDS011;11055;50.870;4.316;2023-05-10T07:57:49;20.45;;;12.18;;
21786;SDS011;11055;50.870;4.316;2023-05-10T08:00:18;19.95;;;12.32;;
21786;SDS011;11055;50.870;4.316;2023-05-10T08:02:44;22.48;;;12.02;;
21786;SDS011;11055;50.870;4.316;2023-05-10T08:05:10;18.77;;;11.32;;
21786;SDS011;11055;50.870;4.316;2023-05-10T08:07:36;17.50;;;12.60;;
21786;SDS011;11055;50.870;4.316;2023-05-10T08:10:02;21.33;;;12.32;;
21786;SDS011;11055;50.870;4.316;2023-05-10T08:12:28;19.33;;;11.30;;
21786;SDS011;11055;50.870;4.316;2023-05-10T08:14:55;16.38;;;10.77;;
21786;SDS011;11055;50.870;4.316;2023-05-10T08:17:20;16.42;;;10.48;;
21786;SDS011;11055;50.870;4.316;2023-05-10T08:19:46;12.30;;;9.93;;
21786;SDS011;11055;50.870;4.316;2023-05-10T08:22:12;17.20;;;10.70;;
21786;SDS011;11055;50.870;4.316;2023-05-10T08:24:37;16.80;;;9.10;;
21786;SDS011;11055;50.870;4.316;2023-05-10T08:27:07;11.98;;;8.70;;
21786;SDS011;11055;50.870;4.316;2023-05-10T08:29:33;12.50;;;8.32;;
21786;SDS011;11055;50.870;4.316;2023-05-10T08:31:59;11.63;;;8.00;;
21786;SDS011;11055;50.870;4.316;2023-05-10T08:34:25;13.85;;;9.00;;
21786;SDS011;11055;50.870;4.316;2023-05-10T08:36:51;10.95;;;8.40;;
21786;SDS011;11055;50.870;4.316;2023-05-10T08:39:17;14.27;;;8.48;;
21786;SDS011;11055;50.870;4.316;2023-05-10T08:41:43;11.35;;;8.52;;
21786;SDS011;11055;50.870;4.316;2023-05-10T08:44:11;11.32;;;8.40;;
21786;SDS011;11055;50.870;4.316;2023-05-10T08:46:37;10.80;;;8.02;;
21786;SDS011;11055;50.870;4.316;2023-05-10T08:49:10;10.98;;;8.07;;
21786;SDS011;11055;50.870;4.316;2023-05-10T08:51:43;10.60;;;8.35;;
21786;SDS011;11055;50.870;4.316;2023-05-10T08:54:12;12.77;;;9.02;;
21786;SDS011;11055;50.870;4.316;2023-05-10T08:56:38;11.75;;;8.10;;
21786;SDS011;11055;50.870;4.316;2023-05-10T08:59:04;12.48;;;8.77;;
21786;SDS011;11055;50.870;4.316;2023-05-10T09:01:30;11.40;;;8.18;;
21786;SDS011;11055;50.870;4.316;2023-05-10T09:03:57;11.40;;;7.70;;
21786;SDS011;11055;50.870;4.316;2023-05-10T09:06:23;10.07;;;8.02;;
21786;SDS011;11055;50.870;4.316;2023-05-10T09:08:49;11.00;;;8.27;;
21786;SDS011;11055;50.870;4.316;2023-05-10T09:11:17;11.57;;;8.25;;
21786;SDS011;11055;50.870;4.316;2023-05-10T09:13:42;11.35;;;9.50;;
21786;SDS011;11055;50.870;4.316;2023-05-10T09:16:09;11.13;;;8.57;;
21786;SDS011;11055;50.870;4.316;2023-05-10T09:18:35;12.23;;;8.50;;
21786;SDS011;11055;50.870;4.316;2023-05-10T09:21:00;10.00;;;7.80;;
21786;SDS011;11055;50.870;4.316;2023-05-10T09:23:26;10.85;;;8.52;;
21786;SDS011;11055;50.870;4.316;2023-05-10T09:26:06;12.07;;;9.10;;
21786;SDS011;11055;50.870;4.316;2023-05-10T09:28:49;11.15;;;8.35;;
21786;SDS011;11055;50.870;4.316;2023-05-10T09:31:16;11.35;;;9.05;;
21786;SDS011;11055;50.870;4.316;2023-05-10T09:33:45;11.23;;;8.70;;
21786;SDS011;11055;50.870;4.316;2023-05-10T09:36:12;12.43;;;8.90;;
21786;SDS011;11055;50.870;4.316;2023-05-10T09:38:48;11.63;;;8.32;;
21786;SDS011;11055;50.870;4.316;2023-05-10T09:41:25;10.77;;;9.07;;
21786;SDS011;11055;50.870;4.316;2023-05-10T09:43:55;11.88;;;8.88;;
21786;SDS011;11055;50.870;4.316;2023-05-10T09:46:21;10.73;;;8.52;;
21786;SDS011;11055;50.870;4.316;2023-05-10T09:48:47;12.77;;;8.75;;
21786;SDS011;11055;50.870;4.316;2023-05-10T09:51:20;9.95;;;8.43;;
21786;SDS011;11055;50.870;4.316;2023-05-10T09:54:34;10.65;;;7.95;;
21786;SDS011;11055;50.870;4.316;2023-05-10T09:56:39;11.43;;;8.47;;
21786;SDS011;11055;50.870;4.316;2023-05-10T09:59:06;10.90;;;7.93;;
21786;SDS011;11055;50.870;4.316;2023-05-10T10:01:34;11.82;;;8.90;;
21786;SDS011;11055;50.870;4.316;2023-05-10T10:04:04;10.60;;;8.90;;
21786;SDS011;11055;50.870;4.316;2023-05-10T10:06:40;10.53;;;8.90;;
21786;SDS011;11055;50.870;4.316;2023-05-10T10:09:06;10.70;;;8.63;;
21786;SDS011;11055;50.870;4.316;2023-05-10T10:11:36;11.55;;;9.15;;
21786;SDS011;11055;50.870;4.316;2023-05-10T10:14:02;11.32;;;8.48;;
21786;SDS011;11055;50.870;4.316;2023-05-10T10:16:29;9.00;;;8.07;;
21786;SDS011;11055;50.870;4.316;2023-05-10T10:18:55;10.02;;;8.43;;
21786;SDS011;11055;50.870;4.316;2023-05-10T10:21:22;11.75;;;8.80;;
21786;SDS011;11055;50.870;4.316;2023-05-10T10:23:48;11.05;;;8.55;;
21786;SDS011;11055;50.870;4.316;2023-05-10T10:26:14;11.55;;;9.38;;
21786;SDS011;11055;50.870;4.316;2023-05-10T10:28:50;9.80;;;8.75;;
21786;SDS011;11055;50.870;4.316;2023-05-10T10:34:27;12.05;;;9.07;;
21786;SDS011;11055;50.870;4.316;2023-05-10T10:36:55;10.27;;;9.05;;
21786;SDS011;11055;50.870;4.316;2023-05-10T10:39:22;10.93;;;8.13;;
21786;SDS011;11055;50.870;4.316;2023-05-10T10:41:53;9.93;;;8.85;;
21786;SDS011;11055;50.870;4.316;2023-05-10T10:52:39;11.27;;;8.57;;
21786;SDS011;11055;50.870;4.316;2023-05-10T10:55:10;12.65;;;8.75;;
21786;SDS011;11055;50.870;4.316;2023-05-10T11:00:17;11.00;;;8.93;;
21786;SDS011;11055;50.870;4.316;2023-05-10T11:02:48;10.25;;;8.40;;
21786;SDS011;11055;50.870;4.316;2023-05-10T11:08:09;8.48;;;7.55;;
21786;SDS011;11055;50.870;4.316;2023-05-10T11:10:36;8.30;;;7.50;;
21786;SDS011;11055;50.870;4.316;2023-05-10T11:13:06;9.65;;;7.95;;
21786;SDS011;11055;50.870;4.316;2023-05-10T11:15:35;9.60;;;8.23;;
21786;SDS011;11055;50.870;4.316;2023-05-10T11:20:51;8.10;;;7.30;;
21786;SDS011;11055;50.870;4.316;2023-05-10T11:23:20;8.93;;;7.70;;
21786;SDS011;11055;50.870;4.316;2023-05-10T11:25:46;10.70;;;8.80;;
21786;SDS011;11055;50.870;4.316;2023-05-10T11:28:13;9.15;;;8.25;;
21786;SDS011;11055;50.870;4.316;2023-05-10T11:30:40;9.68;;;8.18;;
21786;SDS011;11055;50.870;4.316;2023-05-10T11:33:07;9.80;;;7.65;;
21786;SDS011;11055;50.870;4.316;2023-05-10T11:35:40;8.80;;;7.65;;
21786;SDS011;11055;50.870;4.316;2023-05-10T11:38:06;9.63;;;8.15;;
21786;SDS011;11055;50.870;4.316;2023-05-10T11:40:33;11.63;;;8.48;;
21786;SDS011;11055;50.870;4.316;2023-05-10T11:42:59;11.45;;;9.02;;
21786;SDS011;11055;50.870;4.316;2023-05-10T11:45:25;11.23;;;9.25;;
21786;SDS011;11055;50.870;4.316;2023-05-10T11:47:52;12.38;;;9.98;;
21786;SDS011;11055;50.870;4.316;2023-05-10T11:50:18;13.60;;;10.15;;
21786;SDS011;11055;50.870;4.316;2023-05-10T11:52:44;13.95;;;10.25;;
21786;SDS011;11055;50.870;4.316;2023-05-10T11:55:09;11.52;;;10.15;;
21786;SDS011;11055;50.870;4.316;2023-05-10T11:57:35;12.85;;;10.63;;
21786;SDS011;11055;50.870;4.316;2023-05-10T12:00:03;13.80;;;10.43;;
21786;SDS011;11055;50.870;4.316;2023-05-10T12:02:29;12.32;;;10.15;;
21786;SDS011;11055;50.870;4.316;2023-05-10T12:04:55;11.95;;;10.45;;
21786;SDS011;11055;50.870;4.316;2023-05-10T12:07:21;12.27;;;10.07;;
21786;SDS011;11055;50.870;4.316;2023-05-10T12:10:03;12.63;;;10.18;;
21786;SDS011;11055;50.870;4.316;2023-05-10T12:13:02;11.70;;;9.85;;
21786;SDS011;11055;50.870;4.316;2023-05-10T12:15:22;11.45;;;9.50;;
21786;SDS011;11055;50.870;4.316;2023-05-10T12:17:49;11.13;;;9.52;;
21786;SDS011;11055;50.870;4.316;2023-05-10T12:22:54;10.65;;;8.80;;
21786;SDS011;11055;50.870;4.316;2023-05-10T12:25:22;9.85;;;8.30;;
21786;SDS011;11055;50.870;4.316;2023-05-10T12:27:50;11.85;;;9.13;;
21786;SDS011;11055;50.870;4.316;2023-05-10T12:30:35;12.50;;;9.93;;
21786;SDS011;11055;50.870;4.316;2023-05-10T12:35:43;10.75;;;9.00;;
21786;SDS011;11055;50.870;4.316;2023-05-10T12:38:24;11.68;;;9.07;;
21786;SDS011;11055;50.870;4.316;2023-05-10T12:40:51;9.45;;;8.48;;
21786;SDS011;11055;50.870;4.316;2023-05-10T12:43:16;14.20;;;8.43;;
21786;SDS011;11055;50.870;4.316;2023-05-10T12:45:42;10.15;;;9.07;;
21786;SDS011;11055;50.870;4.316;2023-05-10T12:48:12;11.27;;;8.68;;
21786;SDS011;11055;50.870;4.316;2023-05-10T12:50:38;9.77;;;8.55;;
21786;SDS011;11055;50.870;4.316;2023-05-10T12:53:04;8.20;;;7.38;;
21786;SDS011;11055;50.870;4.316;2023-05-10T12:55:29;8.88;;;7.68;;
21786;SDS011;11055;50.870;4.316;2023-05-10T12:57:55;8.93;;;7.88;;
21786;SDS011;11055;50.870;4.316;2023-05-10T13:00:21;8.70;;;7.80;;
21786;SDS011;11055;50.870;4.316;2023-05-10T13:02:46;10.65;;;8.10;;
21786;SDS011;11055;50.870;4.316;2023-05-10T13:05:12;7.95;;;7.10;;
21786;SDS011;11055;50.870;4.316;2023-05-10T13:07:38;7.80;;;7.00;;
21786;SDS011;11055;50.870;4.316;2023-05-10T13:10:04;7.93;;;7.13;;
21786;SDS011;11055;50.870;4.316;2023-05-10T13:12:31;8.45;;;6.93;;
21786;SDS011;11055;50.870;4.316;2023-05-10T13:14:57;7.90;;;6.65;;
21786;SDS011;11055;50.870;4.316;2023-05-10T13:17:22;8.07;;;7.20;;
21786;SDS011;11055;50.870;4.316;2023-05-10T13:19:50;9.32;;;7.72;;
21786;SDS011;11055;50.870;4.316;2023-05-10T13:22:15;9.45;;;7.78;;
21786;SDS011;11055;50.870;4.316;2023-05-10T13:24:41;10.93;;;8.55;;
21786;SDS011;11055;50.870;4.316;2023-05-10T13:27:07;9.95;;;7.80;;
21786;SDS011;11055;50.870;4.316;2023-05-10T13:29:32;9.57;;;8.05;;
21786;SDS011;11055;50.870;4.316;2023-05-10T13:31:58;9.77;;;8.30;;
21786;SDS011;11055;50.870;4.316;2023-05-10T13:34:24;10.43;;;8.90;;
21786;SDS011;11055;50.870;4.316;2023-05-10T13:36:49;9.10;;;8.10;;
21786;SDS011;11055;50.870;4.316;2023-05-10T13:39:15;12.25;;;8.48;;
21786;SDS011;11055;50.870;4.316;2023-05-10T13:41:41;12.85;;;8.55;;
21786;SDS011;11055;50.870;4.316;2023-05-10T13:44:07;9.27;;;7.75;;
21786;SDS011;11055;50.870;4.316;2023-05-10T13:46:33;10.90;;;8.52;;
21786;SDS011;11055;50.870;4.316;2023-05-10T13:48:58;10.23;;;9.23;;
21786;SDS011;11055;50.870;4.316;2023-05-10T13:51:24;11.27;;;9.77;;
21786;SDS011;11055;50.870;4.316;2023-05-10T13:53:49;12.15;;;10.88;;
21786;SDS011;11055;50.870;4.316;2023-05-10T13:56:15;12.45;;;10.15;;
21786;SDS011;11055;50.870;4.316;2023-05-10T13:58:41;11.20;;;9.48;;
21786;SDS011;11055;50.870;4.316;2023-05-10T14:01:06;14.07;;;10.00;;
21786;SDS011;11055;50.870;4.316;2023-05-10T14:03:32;12.05;;;10.45;;
21786;SDS011;11055;50.870;4.316;2023-05-10T14:05:58;13.15;;;10.80;;
21786;SDS011;11055;50.870;4.316;2023-05-10T14:08:24;13.05;;;11.23;;
21786;SDS011;11055;50.870;4.316;2023-05-10T14:10:51;12.88;;;11.38;;
21786;SDS011;11055;50.870;4.316;2023-05-10T14:13:17;12.38;;;11.02;;
21786;SDS011;11055;50.870;4.316;2023-05-10T14:15:43;15.70;;;11.98;;
21786;SDS011;11055;50.870;4.316;2023-05-10T14:18:09;13.25;;;11.40;;
21786;SDS011;11055;50.870;4.316;2023-05-10T14:20:34;12.52;;;11.23;;
21786;SDS011;11055;50.870;4.316;2023-05-10T14:23:00;13.07;;;11.15;;
21786;SDS011;11055;50.870;4.316;2023-05-10T14:25:26;12.02;;;10.50;;
21786;SDS011;11055;50.870;4.316;2023-05-10T14:27:51;13.20;;;11.45;;
21786;SDS011;11055;50.870;4.316;2023-05-10T14:30:19;11.75;;;10.52;;
21786;SDS011;11055;50.870;4.316;2023-05-10T14:32:45;12.60;;;10.43;;
21786;SDS011;11055;50.870;4.316;2023-05-10T14:35:11;11.82;;;10.60;;
21786;SDS011;11055;50.870;4.316;2023-05-10T14:37:37;13.63;;;11.07;;
21786;SDS011;11055;50.870;4.316;2023-05-10T14:40:03;13.20;;;11.30;;
21786;SDS011;11055;50.870;4.316;2023-05-10T14:42:31;13.50;;;11.38;;
21786;SDS011;11055;50.870;4.316;2023-05-10T14:44:57;14.05;;;11.00;;
21786;SDS011;11055;50.870;4.316;2023-05-10T14:47:22;15.00;;;11.50;;
21786;SDS011;11055;50.870;4.316;2023-05-10T14:49:48;13.65;;;11.50;;
21786;SDS011;11055;50.870;4.316;2023-05-10T14:52:14;16.63;;;11.98;;
21786;SDS011;11055;50.870;4.316;2023-05-10T14:54:40;15.32;;;11.65;;
21786;SDS011;11055;50.870;4.316;2023-05-10T14:57:06;14.27;;;11.43;;
21786;SDS011;11055;50.870;4.316;2023-05-10T14:59:32;16.10;;;11.13;;
21786;SDS011;11055;50.870;4.316;2023-05-10T15:01:58;11.32;;;9.35;;
21786;SDS011;11055;50.870;4.316;2023-05-10T15:04:24;9.98;;;6.55;;
21786;SDS011;11055;50.870;4.316;2023-05-10T15:06:49;6.05;;;3.53;;
21786;SDS011;11055;50.870;4.316;2023-05-10T15:09:15;5.53;;;2.90;;
21786;SDS011;11055;50.870;4.316;2023-05-10T15:11:41;4.45;;;2.97;;